Time;durP1;ratioP1;P1;durP2;ratioP2;P2;SDS_P1;SDS_P2;PMS_P1;PMS_P2;Temp;Humidity;BMP_temperature;BMP_pressure;BME280_temperature;BME280_humidity;BME280_pressure;Samples;Min_cycle;Max_cycle;Signal;HPM_P1;HPM_P2
2023/08/30 00:00:14;;;;;;;;;;;;;;;;;;5135845;27;1047;-63
2023/08/30 00:02:39;;;;;;;;;;;;;;;;;;5116988;27;1166;-62
2023/08/30 00:05:04;;;;;;;;;;;;;;;;;;5135435;27;836;-63
2023/08/30 00:07:30;;;;;;;;;;;;;;;;;;5135702;27;879;-63
2023/08/30 00:09:56;;;;;;;;;;;;;;;;;;5135359;27;801;-62
2023/08/30 00:12:21;;;;;;;;;;;;;;;;;;5117483;27;959;-62
2023/08/30 00:14:47;;;;;;;;;;;;;;;;;;5135604;27;1016;-62
2023/08/30 00:17:12;;;;;;;;;;;;;;;;;;5135138;27;1955;-63
2023/08/30 00:19:37;;;;;;;;;;;;;;;;;;5135423;27;1219;-62
2023/08/30 00:22:03;;;;;;;;;;;;;;;;;;5117002;27;788;-62
2023/08/30 00:24:28;;;;;;;;;;;;;;;;;;5135832;27;860;-63
2023/08/30 00:26:53;;;;;;;;;;;;;;;;;;5135235;27;835;-63
2023/08/30 00:29:18;;;;;;;;;;;;;;;;;;5117314;27;856;-62
2023/08/30 00:31:44;;;;;;;;;;;;;;;;;;5136228;27;820;-62
2023/08/30 00:34:09;;;;;;;;;;;;;;;;;;5117075;27;841;-62
2023/08/30 00:36:34;;;;;;;;;;;;;;;;;;5136272;27;1947;-62
2023/08/30 00:38:59;;;;;;;;;;;;;;;;;;5135320;27;879;-62
2023/08/30 00:41:25;;;;;;;;;;;;;;;;;;5117889;27;851;-62
2023/08/30 00:43:50;;;;;;;;;;;;;;;;;;5134901;27;883;-62
2023/08/30 00:46:16;;;;;;;;;;;;;;;;;;5136565;27;911;-62
2023/08/30 00:48:41;;;;;;;;;;;;;;;;;;5136045;27;827;-62
2023/08/30 00:51:07;;;;;;;;;;;;;;;;;;5135660;27;822;-62
2023/08/30 00:53:32;;;;;;;;;;;;;;;;;;5136069;27;856;-62
2023/08/30 00:55:57;;;;;;;;;;;;;;;;;;5133758;27;1905;-62
2023/08/30 00:58:26;;;;;;;;;;;;;;;;;;5135856;27;974;-62
2023/08/30 01:00:51;;;;;;;;;;;;;;;;;;5135012;27;988;-62
2023/08/30 01:03:17;;;;;;;;;;;;;;;;;;5135128;27;879;-62
2023/08/30 01:05:42;;;;;;;;;;;;;;;;;;5134747;27;788;-62
2023/08/30 01:08:07;;;;;;;;;;;;;;;;;;5134187;27;923;-62
2023/08/30 01:10:38;;;;;;;;;;;;;;;;;;5134873;27;988;-62
2023/08/30 01:13:07;;;;;;;;;;;;;;;;;;5133680;27;985;-61
2023/08/30 01:15:34;;;;;;;;;;;;;;;;;;5134554;27;1898;-62
2023/08/30 01:18:00;;;;;;;;;;;;;;;;;;5133908;27;911;-61
2023/08/30 01:20:25;;;;;;;;;;;;;;;;;;5134058;27;1209;-61
2023/08/30 01:23:03;;;;;;;;;;;;;;;;;;5114903;27;1201;-61
2023/08/30 01:25:35;;;;;;;;;;;;;;;;;;5134695;27;859;-63
2023/08/30 01:28:04;;;;;;;;;;;;;;;;;;5133468;27;836;-63
2023/08/30 01:30:30;;;;;;;;;;;;;;;;;;5134214;27;918;-63
2023/08/30 01:32:56;;;;;;;;;;;;;;;;;;5133795;27;879;-63
2023/08/30 01:35:22;;;;;;;;;;;;;;;;;;5115832;27;1906;-63
2023/08/30 01:37:48;;;;;;;;;;;;;;;;;;5133838;27;966;-62
2023/08/30 01:40:15;;;;;;;;;;;;;;;;;;5115549;27;892;-62
2023/08/30 01:42:41;;;;;;;;;;;;;;;;;;5134027;27;954;-63
2023/08/30 01:45:10;;;;;;;;;;;;;;;;;;5133287;27;907;-62
2023/08/30 01:47:37;;;;;;;;;;;;;;;;;;5134115;27;852;-63
2023/08/30 01:50:03;;;;;;;;;;;;;;;;;;5133630;27;833;-62
2023/08/30 01:52:29;;;;;;;;;;;;;;;;;;5134099;27;895;-62
2023/08/30 01:54:54;;;;;;;;;;;;;;;;;;5133441;27;1878;-62
2023/08/30 01:57:20;;;;;;;;;;;;;;;;;;5115635;27;1022;-62
2023/08/30 01:59:45;;;;;;;;;;;;;;;;;;5134052;27;804;-63
2023/08/30 02:02:10;;;;;;;;;;;;;;;;;;5132916;27;875;-62
2023/08/30 02:04:36;;;;;;;;;;;;;;;;;;5133633;27;928;-62
2023/08/30 02:07:08;;;;;;;;;;;;;;;;;;5097431;27;931;-62
2023/08/30 02:09:45;;;;;;;;;;;;;;;;;;5133668;27;1045;-62
2023/08/30 02:12:13;;;;;;;;;;;;;;;;;;5133406;27;831;-62
2023/08/30 02:14:39;;;;;;;;;;;;;;;;;;5133983;27;910;-63
2023/08/30 02:17:05;;;;;;;;;;;;;;;;;;5132869;27;1901;-62
2023/08/30 02:19:31;;;;;;;;;;;;;;;;;;5115197;27;1056;-62
2023/08/30 02:21:56;;;;;;;;;;;;;;;;;;5133066;27;819;-62
2023/08/30 02:24:21;;;;;;;;;;;;;;;;;;5133511;27;852;-62
2023/08/30 02:26:46;;;;;;;;;;;;;;;;;;5132937;27;867;-62
2023/08/30 02:29:13;;;;;;;;;;;;;;;;;;5133781;27;935;-62
2023/08/30 02:31:38;;;;;;;;;;;;;;;;;;5133745;27;906;-62
2023/08/30 02:34:03;;;;;;;;;;;;;;;;;;5133595;27;812;-62
2023/08/30 02:36:29;;;;;;;;;;;;;;;;;;5134048;27;1906;-62
2023/08/30 02:38:54;;;;;;;;;;;;;;;;;;5132964;27;1113;-62
2023/08/30 02:41:19;;;;;;;;;;;;;;;;;;5133817;27;891;-62
2023/08/30 02:43:44;;;;;;;;;;;;;;;;;;5115117;27;1413;-62
2023/08/30 02:46:09;;;;;;;;;;;;;;;;;;5133152;27;832;-62
2023/08/30 02:48:35;;;;;;;;;;;;;;;;;;5133235;27;1049;-62
2023/08/30 02:51:00;;;;;;;;;;;;;;;;;;5131839;27;891;-62
2023/08/30 02:53:25;;;;;;;;;;;;;;;;;;5132989;27;804;-64
2023/08/30 02:55:51;;;;;;;;;;;;;;;;;;5132329;27;1893;-61
2023/08/30 02:58:16;;;;;;;;;;;;;;;;;;5113301;27;670;-61
2023/08/30 03:00:41;;;;;;;;;;;;;;;;;;5132353;27;1077;-61
2023/08/30 03:03:06;;;;;;;;;;;;;;;;;;5131974;27;911;-61
2023/08/30 03:05:32;;;;;;;;;;;;;;;;;;5132438;27;995;-61
2023/08/30 03:07:57;;;;;;;;;;;;;;;;;;5132318;27;955;-62
2023/08/30 03:10:23;;;;;;;;;;;;;;;;;;5132367;27;1010;-62
2023/08/30 03:12:48;;;;;;;;;;;;;;;;;;5132398;27;1105;-62
2023/08/30 03:15:13;;;;;;;;;;;;;;;;;;5131385;27;1924;-62
2023/08/30 03:17:38;;;;;;;;;;;;;;;;;;5113326;28;1287;-62
2023/08/30 03:20:04;;;;;;;;;;;;;;;;;;5113012;27;1103;-62
2023/08/30 03:22:31;;;;;;;;;;;;;;;;;;5132639;27;863;-62
2023/08/30 03:24:56;;;;;;;;;;;;;;;;;;5131390;27;837;-62
2023/08/30 03:27:21;;;;;;;;;;;;;;;;;;5132019;27;836;-62
2023/08/30 03:29:46;;;;;;;;;;;;;;;;;;5131869;27;872;-62
2023/08/30 03:32:14;;;;;;;;;;;;;;;;;;5131745;27;878;-62
2023/08/30 03:34:39;;;;;;;;;;;;;;;;;;5131919;28;1162;-64
2023/08/30 03:37:05;;;;;;;;;;;;;;;;;;5131240;28;1917;-61
2023/08/30 03:39:30;;;;;;;;;;;;;;;;;;5141390;27;1249;-62
2023/08/30 03:41:55;;;;;;;;;;;;;;;;;;5151681;27;887;-62
2023/08/30 03:44:20;;;;;;;;;;;;;;;;;;5133685;27;954;-62
2023/08/30 03:46:46;;;;;;;;;;;;;;;;;;5152979;27;848;-62
2023/08/30 03:49:11;;;;;;;;;;;;;;;;;;5152003;27;907;-62
2023/08/30 03:51:36;;;;;;;;;;;;;;;;;;5152653;27;860;-62
2023/08/30 03:54:01;;;;;;;;;;;;;;;;;;5152115;27;895;-62
2023/08/30 03:56:27;;;;;;;;;;;;;;;;;;5152773;27;1997;-62
2023/08/30 03:58:52;;;;;;;;;;;;;;;;;;5134241;27;827;-62
2023/08/30 04:01:18;;;;;;;;;;;;;;;;;;5151878;27;902;-62
2023/08/30 04:03:43;;;;;;;;;;;;;;;;;;5134100;27;899;-62
2023/08/30 04:06:08;;;;;;;;;;;;;;;;;;5152150;27;677;-62
2023/08/30 04:08:34;;;;;;;;;;;;;;;;;;5151993;27;800;-62
2023/08/30 04:10:59;;;;;;;;;;;;;;;;;;5151730;27;891;-62
2023/08/30 04:13:24;;;;;;;;;;;;;;;;;;5134107;27;919;-62
2023/08/30 04:15:49;;;;;;;;;;;;;;;;;;5152434;27;1913;-62
2023/08/30 04:18:15;;;;;;;;;;;;;;;;;;5151340;27;1389;-62
2023/08/30 04:20:44;;;;;;;;;;;;;;;;;;5151854;27;1066;-62
2023/08/30 04:23:09;;;;;;;;;;;;;;;;;;5151449;27;1021;-62
2023/08/30 04:25:34;;;;;;;;;;;;;;;;;;5133717;27;1166;-62
2023/08/30 04:27:59;;;;;;;;;;;;;;;;;;5151504;27;840;-62
2023/08/30 04:30:25;;;;;;;;;;;;;;;;;;5155072;27;856;-63
2023/08/30 04:32:50;;;;;;;;;;;;;;;;;;5156902;27;931;-63
2023/08/30 04:35:16;;;;;;;;;;;;;;;;;;5137450;27;1905;-62
2023/08/30 04:37:42;;;;;;;;;;;;;;;;;;5154822;27;1268;-62
2023/08/30 04:40:09;;;;;;;;;;;;;;;;;;5152396;27;1161;-62
2023/08/30 04:42:34;;;;;;;;;;;;;;;;;;5152808;27;1186;-62
2023/08/30 04:45:00;;;;;;;;;;;;;;;;;;5155101;27;1138;-63
2023/08/30 04:47:26;;;;;;;;;;;;;;;;;;5120739;27;1644;-62
2023/08/30 04:49:51;;;;;;;;;;;;;;;;;;5153865;27;1201;-62
2023/08/30 04:52:17;;;;;;;;;;;;;;;;;;5155514;27;915;-62
2023/08/30 04:54:42;;;;;;;;;;;;;;;;;;5137271;27;974;-62
2023/08/30 04:57:08;;;;;;;;;;;;;;;;;;5151639;27;1905;-62
2023/08/30 04:59:33;;;;;;;;;;;;;;;;;;5151121;27;1169;-62
2023/08/30 05:01:59;;;;;;;;;;;;;;;;;;5136465;27;1131;-62
2023/08/30 05:04:24;;;;;;;;;;;;;;;;;;5116130;27;1265;-62
2023/08/30 05:06:50;;;;;;;;;;;;;;;;;;5134958;27;855;-62
2023/08/30 05:09:15;;;;;;;;;;;;;;;;;;5134467;27;990;-62
2023/08/30 05:11:40;;;;;;;;;;;;;;;;;;5134577;27;927;-62
2023/08/30 05:14:05;;;;;;;;;;;;;;;;;;5134292;27;1062;-62
2023/08/30 05:16:31;;;;;;;;;;;;;;;;;;5134949;27;1913;-62
2023/08/30 05:18:56;;;;;;;;;;;;;;;;;;5135589;27;804;-62
2023/08/30 05:21:21;;;;;;;;;;;;;;;;;;5134103;27;1131;-62
2023/08/30 05:23:47;;;;;;;;;;;;;;;;;;5135204;27;805;-62
2023/08/30 05:26:12;;;;;;;;;;;;;;;;;;5133138;27;887;-62
2023/08/30 05:28:38;;;;;;;;;;;;;;;;;;5135310;27;847;-62
2023/08/30 05:31:03;;;;;;;;;;;;;;;;;;5134159;27;1104;-62
2023/08/30 05:33:28;;;;;;;;;;;;;;;;;;5134425;27;872;-62
2023/08/30 05:35:53;;;;;;;;;;;;;;;;;;5134903;27;1973;-62
2023/08/30 05:38:19;;;;;;;;;;;;;;;;;;5133563;27;756;-62
2023/08/30 05:40:44;;;;;;;;;;;;;;;;;;5115275;27;898;-62
2023/08/30 05:43:10;;;;;;;;;;;;;;;;;;5133545;27;838;-62
2023/08/30 05:45:36;;;;;;;;;;;;;;;;;;5116083;27;1566;-62
2023/08/30 05:48:02;;;;;;;;;;;;;;;;;;5133313;27;1007;-62
2023/08/30 05:50:27;;;;;;;;;;;;;;;;;;5133999;27;918;-62
2023/08/30 05:52:53;;;;;;;;;;;;;;;;;;5098290;27;1353;-62
2023/08/30 05:55:18;;;;;;;;;;;;;;;;;;5133457;27;1913;-63
2023/08/30 05:57:44;;;;;;;;;;;;;;;;;;5133789;27;915;-63
2023/08/30 06:00:09;;;;;;;;;;;;;;;;;;5114778;27;1002;-63
2023/08/30 06:02:35;;;;;;;;;;;;;;;;;;5133425;27;870;-62
2023/08/30 06:05:00;;;;;;;;;;;;;;;;;;5133264;27;871;-63
2023/08/30 06:07:25;;;;;;;;;;;;;;;;;;5133671;27;930;-64
2023/08/30 06:09:50;;;;;;;;;;;;;;;;;;5133495;27;895;-63
2023/08/30 06:12:16;;;;;;;;;;;;;;;;;;5132846;27;829;-63
2023/08/30 06:14:42;;;;;;;;;;;;;;;;;;5133424;27;1009;-63
2023/08/30 06:17:07;;;;;;;;;;;;;;;;;;5114094;27;1945;-63
2023/08/30 06:19:33;;;;;;;;;;;;;;;;;;5132694;27;1154;-63
2023/08/30 06:21:58;;;;;;;;;;;;;;;;;;5133574;27;954;-63
2023/08/30 06:24:24;;;;;;;;;;;;;;;;;;5114545;27;1159;-63
2023/08/30 06:26:49;;;;;;;;;;;;;;;;;;5133017;27;887;-63
2023/08/30 06:29:14;;;;;;;;;;;;;;;;;;5132999;27;955;-63
2023/08/30 06:31:41;;;;;;;;;;;;;;;;;;5133590;27;1057;-63
2023/08/30 06:34:06;;;;;;;;;;;;;;;;;;5133394;27;867;-63
2023/08/30 06:36:32;;;;;;;;;;;;;;;;;;5133810;27;1969;-62
2023/08/30 06:38:57;;;;;;;;;;;;;;;;;;5133920;27;780;-62
2023/08/30 06:41:23;;;;;;;;;;;;;;;;;;5134169;27;848;-62
2023/08/30 06:43:48;;;;;;;;;;;;;;;;;;5134044;27;910;-63
2023/08/30 06:46:13;;;;;;;;;;;;;;;;;;5132670;27;903;-63
2023/08/30 06:48:39;;;;;;;;;;;;;;;;;;5134094;27;1065;-63
2023/08/30 06:51:04;;;;;;;;;;;;;;;;;;5133082;27;937;-63
2023/08/30 06:53:29;;;;;;;;;;;;;;;;;;5132142;27;911;-63
2023/08/30 06:56:00;;;;;;;;;;;;;;;;;;5133586;27;1898;-63
2023/08/30 06:58:26;;;;;;;;;;;;;;;;;;5114868;27;812;-63
2023/08/30 07:00:51;;;;;;;;;;;;;;;;;;5133104;27;891;-63
2023/08/30 07:03:16;;;;;;;;;;;;;;;;;;5113400;27;1195;-63
2023/08/30 07:05:43;;;;;;;;;;;;;;;;;;5133195;27;987;-63
2023/08/30 07:08:08;;;;;;;;;;;;;;;;;;5132454;27;862;-63
2023/08/30 07:10:34;;;;;;;;;;;;;;;;;;5132566;27;879;-63
2023/08/30 07:12:59;;;;;;;;;;;;;;;;;;5131954;27;880;-63
2023/08/30 07:15:25;;;;;;;;;;;;;;;;;;5113406;27;1951;-63
2023/08/30 07:17:50;;;;;;;;;;;;;;;;;;5132399;27;883;-63
2023/08/30 07:20:16;;;;;;;;;;;;;;;;;;5131149;27;1063;-63
2023/08/30 07:22:41;;;;;;;;;;;;;;;;;;5096498;27;1205;-63
2023/08/30 07:25:07;;;;;;;;;;;;;;;;;;5113315;27;955;-63
2023/08/30 07:27:32;;;;;;;;;;;;;;;;;;5131926;27;812;-63
2023/08/30 07:29:58;;;;;;;;;;;;;;;;;;5132213;27;939;-64
2023/08/30 07:32:23;;;;;;;;;;;;;;;;;;5131352;27;891;-62
2023/08/30 07:34:49;;;;;;;;;;;;;;;;;;5132499;28;1010;-62
2023/08/30 07:37:18;;;;;;;;;;;;;;;;;;5131561;28;1917;-62
2023/08/30 07:39:44;;;;;;;;;;;;;;;;;;5113208;28;1222;-62
2023/08/30 07:42:09;;;;;;;;;;;;;;;;;;5132302;28;902;-63
2023/08/30 07:44:34;;;;;;;;;;;;;;;;;;5113569;28;1533;-63
2023/08/30 07:46:59;;;;;;;;;;;;;;;;;;5131417;28;835;-62
2023/08/30 07:49:25;;;;;;;;;;;;;;;;;;5131112;28;962;-62
2023/08/30 07:51:50;;;;;;;;;;;;;;;;;;5132041;28;865;-63
2023/08/30 07:54:15;;;;;;;;;;;;;;;;;;5131449;28;1002;-62
2023/08/30 07:56:40;;;;;;;;;;;;;;;;;;5131268;28;1979;-62
2023/08/30 07:59:06;;;;;;;;;;;;;;;;;;5130998;28;972;-62
2023/08/30 08:01:31;;;;;;;;;;;;;;;;;;5131737;28;1014;-62
2023/08/30 08:03:56;;;;;;;;;;;;;;;;;;5132978;27;762;-62
2023/08/30 08:06:22;;;;;;;;;;;;;;;;;;5118186;27;1081;-62
2023/08/30 08:08:47;;;;;;;;;;;;;;;;;;5137039;27;1031;-62
2023/08/30 08:11:12;;;;;;;;;;;;;;;;;;5136544;27;904;-63
2023/08/30 08:13:38;;;;;;;;;;;;;;;;;;5135709;27;979;-62
2023/08/30 08:16:03;;;;;;;;;;;;;;;;;;5116622;27;1878;-63
2023/08/30 08:18:28;;;;;;;;;;;;;;;;;;5136560;27;879;-62
2023/08/30 08:20:54;;;;;;;;;;;;;;;;;;5136712;27;1221;-62
2023/08/30 08:23:19;;;;;;;;;;;;;;;;;;5136016;27;970;-63
2023/08/30 08:25:44;;;;;;;;;;;;;;;;;;5118136;27;820;-63
2023/08/30 08:28:09;;;;;;;;;;;;;;;;;;5135942;27;884;-62
2023/08/30 08:30:35;;;;;;;;;;;;;;;;;;5135798;27;748;-62
2023/08/30 08:33:01;;;;;;;;;;;;;;;;;;5135867;27;848;-62
2023/08/30 08:35:26;;;;;;;;;;;;;;;;;;5116437;27;1918;-62
2023/08/30 08:37:51;;;;;;;;;;;;;;;;;;5135421;27;963;-63
2023/08/30 08:40:17;;;;;;;;;;;;;;;;;;5116486;27;805;-64
2023/08/30 08:42:43;;;;;;;;;;;;;;;;;;5134793;27;931;-64
2023/08/30 08:45:09;;;;;;;;;;;;;;;;;;5134460;27;824;-62
2023/08/30 08:47:34;;;;;;;;;;;;;;;;;;5134853;27;1065;-64
2023/08/30 08:50:01;;;;;;;;;;;;;;;;;;5133601;27;1010;-62
2023/08/30 08:52:27;;;;;;;;;;;;;;;;;;5134948;27;843;-62
2023/08/30 08:54:54;;;;;;;;;;;;;;;;;;5116290;27;1347;-64
2023/08/30 08:57:20;;;;;;;;;;;;;;;;;;5134363;27;1898;-62
2023/08/30 08:59:45;;;;;;;;;;;;;;;;;;5134242;27;978;-62
2023/08/30 09:02:13;;;;;;;;;;;;;;;;;;5134139;27;829;-62
2023/08/30 09:04:39;;;;;;;;;;;;;;;;;;5134272;27;836;-62
2023/08/30 09:07:04;;;;;;;;;;;;;;;;;;5115202;27;899;-62
2023/08/30 09:09:30;;;;;;;;;;;;;;;;;;5134237;27;909;-62
2023/08/30 09:11:55;;;;;;;;;;;;;;;;;;5134611;27;820;-62
2023/08/30 09:14:21;;;;;;;;;;;;;;;;;;5133895;27;1042;-62
2023/08/30 09:16:57;;;;;;;;;;;;;;;;;;5132840;27;1968;-62
2023/08/30 09:19:22;;;;;;;;;;;;;;;;;;5115782;27;1186;-62
2023/08/30 09:21:52;;;;;;;;;;;;;;;;;;5115592;27;1433;-63
2023/08/30 09:24:17;;;;;;;;;;;;;;;;;;5134001;27;855;-62
2023/08/30 09:26:46;;;;;;;;;;;;;;;;;;5134087;27;876;-62
2023/08/30 09:29:12;;;;;;;;;;;;;;;;;;5133885;27;738;-62
2023/08/30 09:31:39;;;;;;;;;;;;;;;;;;5115999;27;924;-62
2023/08/30 09:34:04;;;;;;;;;;;;;;;;;;5133702;27;819;-62
2023/08/30 09:36:34;;;;;;;;;;;;;;;;;;5115688;27;1959;-62
2023/08/30 09:38:59;;;;;;;;;;;;;;;;;;5134136;27;851;-62
2023/08/30 09:41:24;;;;;;;;;;;;;;;;;;5133986;27;839;-64
2023/08/30 09:43:50;;;;;;;;;;;;;;;;;;5115068;27;966;-64
2023/08/30 09:46:15;;;;;;;;;;;;;;;;;;5133817;27;808;-62
2023/08/30 09:48:41;;;;;;;;;;;;;;;;;;5133286;27;887;-62
2023/08/30 09:51:07;;;;;;;;;;;;;;;;;;5133175;27;883;-65
2023/08/30 09:53:37;;;;;;;;;;;;;;;;;;5133264;27;867;-64
2023/08/30 09:56:03;;;;;;;;;;;;;;;;;;5114896;27;1886;-64
2023/08/30 09:58:29;;;;;;;;;;;;;;;;;;5114751;27;1200;-64
2023/08/30 10:00:55;;;;;;;;;;;;;;;;;;5115418;27;1150;-64
2023/08/30 10:03:21;;;;;;;;;;;;;;;;;;5133145;27;851;-64
2023/08/30 10:05:46;;;;;;;;;;;;;;;;;;5132906;27;830;-63
2023/08/30 10:08:13;;;;;;;;;;;;;;;;;;5132676;27;879;-64
2023/08/30 10:10:39;;;;;;;;;;;;;;;;;;5133019;27;854;-63
2023/08/30 10:13:05;;;;;;;;;;;;;;;;;;5133106;27;972;-63
2023/08/30 10:15:33;;;;;;;;;;;;;;;;;;5134402;27;1956;-63
2023/08/30 10:17:58;;;;;;;;;;;;;;;;;;5134063;27;770;-63
2023/08/30 10:20:24;;;;;;;;;;;;;;;;;;5115703;27;1322;-63
2023/08/30 10:22:51;;;;;;;;;;;;;;;;;;5134246;27;804;-64
2023/08/30 10:25:22;;;;;;;;;;;;;;;;;;5114785;27;1136;-64
2023/08/30 10:27:48;;;;;;;;;;;;;;;;;;5133368;27;840;-64
2023/08/30 10:30:13;;;;;;;;;;;;;;;;;;5133860;27;923;-64
2023/08/30 10:32:40;;;;;;;;;;;;;;;;;;5115280;27;828;-64
2023/08/30 10:35:05;;;;;;;;;;;;;;;;;;5133308;27;899;-64
2023/08/30 10:37:31;;;;;;;;;;;;;;;;;;5132356;27;1910;-64
2023/08/30 10:40:00;;;;;;;;;;;;;;;;;;5113774;27;1214;-64
2023/08/30 10:42:25;;;;;;;;;;;;;;;;;;5132517;27;824;-64
2023/08/30 10:44:50;;;;;;;;;;;;;;;;;;5113845;27;1198;-64
2023/08/30 10:47:19;;;;;;;;;;;;;;;;;;5132230;27;883;-64
2023/08/30 10:49:46;;;;;;;;;;;;;;;;;;5138356;27;1170;-66
2023/08/30 10:52:12;;;;;;;;;;;;;;;;;;5152597;27;1126;-66
2023/08/30 10:54:40;;;;;;;;;;;;;;;;;;5154193;27;800;-64
2023/08/30 10:57:05;;;;;;;;;;;;;;;;;;5153900;27;1933;-64
2023/08/30 10:59:30;;;;;;;;;;;;;;;;;;5154003;27;1057;-63
2023/08/30 11:01:56;;;;;;;;;;;;;;;;;;5154698;27;820;-63
2023/08/30 11:04:24;;;;;;;;;;;;;;;;;;5154066;27;812;-64
2023/08/30 11:06:50;;;;;;;;;;;;;;;;;;5154570;27;992;-63
2023/08/30 11:09:20;;;;;;;;;;;;;;;;;;5154346;27;847;-63
2023/08/30 11:11:46;;;;;;;;;;;;;;;;;;5154859;27;998;-63
2023/08/30 11:14:12;;;;;;;;;;;;;;;;;;5153202;27;1005;-67
2023/08/30 11:16:37;;;;;;;;;;;;;;;;;;5154130;27;1909;-66
2023/08/30 11:19:03;;;;;;;;;;;;;;;;;;5135828;27;1111;-63
2023/08/30 11:21:32;;;;;;;;;;;;;;;;;;5153801;27;1248;-63
2023/08/30 11:23:58;;;;;;;;;;;;;;;;;;5153576;27;1037;-62
2023/08/30 11:26:23;;;;;;;;;;;;;;;;;;5153987;27;870;-64
2023/08/30 11:28:51;;;;;;;;;;;;;;;;;;5135306;27;1303;-65
2023/08/30 11:31:22;;;;;;;;;;;;;;;;;;5153320;27;888;-64
2023/08/30 11:33:51;;;;;;;;;;;;;;;;;;5153967;27;835;-65
2023/08/30 11:36:20;;;;;;;;;;;;;;;;;;5153783;27;1917;-66
2023/08/30 11:38:46;;;;;;;;;;;;;;;;;;5153092;27;989;-65
2023/08/30 11:41:11;;;;;;;;;;;;;;;;;;5152535;27;752;-66
2023/08/30 11:43:37;;;;;;;;;;;;;;;;;;5153587;27;872;-66
2023/08/30 11:46:03;;;;;;;;;;;;;;;;;;5153416;27;880;-66
2023/08/30 11:48:28;;;;;;;;;;;;;;;;;;5153470;27;927;-67
2023/08/30 11:50:54;;;;;;;;;;;;;;;;;;5153938;27;815;-67
2023/08/30 11:53:19;;;;;;;;;;;;;;;;;;5133565;27;1289;-67
2023/08/30 11:55:45;;;;;;;;;;;;;;;;;;5151693;27;1901;-67
2023/08/30 11:58:10;;;;;;;;;;;;;;;;;;5152923;27;978;-69
2023/08/30 12:00:37;;;;;;;;;;;;;;;;;;5154147;27;895;-70
2023/08/30 12:03:04;;;;;;;;;;;;;;;;;;5154394;27;848;-70
2023/08/30 12:05:33;;;;;;;;;;;;;;;;;;5153982;27;927;-68
2023/08/30 12:07:59;;;;;;;;;;;;;;;;;;5153583;27;800;-70
2023/08/30 12:10:24;;;;;;;;;;;;;;;;;;5154868;27;824;-72
2023/08/30 12:12:49;;;;;;;;;;;;;;;;;;5119090;27;1238;-65
2023/08/30 12:15:15;;;;;;;;;;;;;;;;;;5153581;27;978;-64
2023/08/30 12:17:41;;;;;;;;;;;;;;;;;;5135618;27;1973;-65
2023/08/30 12:20:14;;;;;;;;;;;;;;;;;;5153239;27;1131;-65
2023/08/30 12:22:39;;;;;;;;;;;;;;;;;;5154076;27;1117;-65
2023/08/30 12:25:21;;;;;;;;;;;;;;;;;;5154508;27;1081;-65
2023/08/30 12:27:46;;;;;;;;;;;;;;;;;;5154414;27;928;-64
2023/08/30 12:30:13;;;;;;;;;;;;;;;;;;5153149;27;860;-65
2023/08/30 12:32:38;;;;;;;;;;;;;;;;;;5152912;27;853;-64
2023/08/30 12:35:04;;;;;;;;;;;;;;;;;;5152343;27;840;-64
2023/08/30 12:37:29;;;;;;;;;;;;;;;;;;5151464;27;1984;-65
2023/08/30 12:39:54;;;;;;;;;;;;;;;;;;5151885;27;892;-64
2023/08/30 12:42:19;;;;;;;;;;;;;;;;;;5151530;27;930;-65
2023/08/30 12:44:45;;;;;;;;;;;;;;;;;;5152285;27;848;-64
2023/08/30 12:47:13;;;;;;;;;;;;;;;;;;5151742;27;828;-65
2023/08/30 12:49:39;;;;;;;;;;;;;;;;;;5152948;27;860;-64
2023/08/30 12:52:04;;;;;;;;;;;;;;;;;;5154310;27;765;-64
2023/08/30 12:54:29;;;;;;;;;;;;;;;;;;5155757;27;844;-65
2023/08/30 12:56:55;;;;;;;;;;;;;;;;;;5137235;27;1968;-65
2023/08/30 12:59:20;;;;;;;;;;;;;;;;;;5155140;27;935;-64
2023/08/30 13:01:46;;;;;;;;;;;;;;;;;;5155163;27;984;-64
2023/08/30 13:04:11;;;;;;;;;;;;;;;;;;5136404;27;1459;-64
2023/08/30 13:06:36;;;;;;;;;;;;;;;;;;5155861;27;829;-64
2023/08/30 13:09:03;;;;;;;;;;;;;;;;;;5154703;27;1248;-65
2023/08/30 13:11:30;;;;;;;;;;;;;;;;;;5153601;27;810;-64
2023/08/30 13:13:57;;;;;;;;;;;;;;;;;;5135412;27;1226;-64
2023/08/30 13:16:23;;;;;;;;;;;;;;;;;;5154482;27;1901;-64
2023/08/30 13:18:48;;;;;;;;;;;;;;;;;;5155022;27;811;-64
2023/08/30 13:21:13;;;;;;;;;;;;;;;;;;5154267;27;1276;-64
2023/08/30 13:23:38;;;;;;;;;;;;;;;;;;5136399;27;891;-64
2023/08/30 13:26:04;;;;;;;;;;;;;;;;;;5136133;27;938;-64
2023/08/30 13:28:29;;;;;;;;;;;;;;;;;;5154185;27;938;-65
2023/08/30 13:30:54;;;;;;;;;;;;;;;;;;5154743;27;998;-65
2023/08/30 13:33:19;;;;;;;;;;;;;;;;;;5154142;27;844;-64
2023/08/30 13:35:50;;;;;;;;;;;;;;;;;;5154640;27;1909;-65
2023/08/30 13:38:15;;;;;;;;;;;;;;;;;;5154291;27;862;-64
2023/08/30 13:40:40;;;;;;;;;;;;;;;;;;5154437;27;939;-64
2023/08/30 13:43:06;;;;;;;;;;;;;;;;;;5153894;27;1177;-64
2023/08/30 13:45:32;;;;;;;;;;;;;;;;;;5135459;27;2236;-64
2023/08/30 13:47:58;;;;;;;;;;;;;;;;;;5154254;27;936;-65
2023/08/30 13:50:23;;;;;;;;;;;;;;;;;;5118673;27;1305;-64
2023/08/30 13:52:48;;;;;;;;;;;;;;;;;;5134426;27;896;-65
2023/08/30 13:55:13;;;;;;;;;;;;;;;;;;5153027;27;821;-65
2023/08/30 13:57:39;;;;;;;;;;;;;;;;;;5154281;27;1905;-64
2023/08/30 14:00:09;;;;;;;;;;;;;;;;;;5154149;27;823;-65
2023/08/30 14:02:35;;;;;;;;;;;;;;;;;;5153549;27;860;-64
2023/08/30 14:05:00;;;;;;;;;;;;;;;;;;5155152;27;844;-64
2023/08/30 14:07:25;;;;;;;;;;;;;;;;;;5154209;27;935;-65
2023/08/30 14:09:51;;;;;;;;;;;;;;;;;;5154901;27;566;-65
2023/08/30 14:12:17;;;;;;;;;;;;;;;;;;5154339;27;867;-65
2023/08/30 14:14:42;;;;;;;;;;;;;;;;;;5154791;27;966;-65
2023/08/30 14:17:07;;;;;;;;;;;;;;;;;;5154189;27;1967;-65
2023/08/30 14:19:33;;;;;;;;;;;;;;;;;;5153728;27;896;-64
2023/08/30 14:21:59;;;;;;;;;;;;;;;;;;5153321;27;1283;-65
2023/08/30 14:24:25;;;;;;;;;;;;;;;;;;5153700;27;1083;-64
2023/08/30 14:26:50;;;;;;;;;;;;;;;;;;5153705;27;907;-65
2023/08/30 14:29:15;;;;;;;;;;;;;;;;;;5152705;27;903;-65
2023/08/30 14:31:40;;;;;;;;;;;;;;;;;;5154066;27;962;-65
2023/08/30 14:34:06;;;;;;;;;;;;;;;;;;5154050;27;1159;-65
2023/08/30 14:36:31;;;;;;;;;;;;;;;;;;5135271;27;1909;-65
2023/08/30 14:38:56;;;;;;;;;;;;;;;;;;5153853;27;919;-64
2023/08/30 14:41:21;;;;;;;;;;;;;;;;;;5153290;27;883;-65
2023/08/30 14:43:47;;;;;;;;;;;;;;;;;;5134852;27;698;-65
2023/08/30 14:46:12;;;;;;;;;;;;;;;;;;5152894;27;813;-65
2023/08/30 14:48:37;;;;;;;;;;;;;;;;;;5153518;27;1109;-64
2023/08/30 14:51:04;;;;;;;;;;;;;;;;;;5153270;27;892;-64
2023/08/30 14:53:30;;;;;;;;;;;;;;;;;;5152807;27;942;-65
2023/08/30 14:55:55;;;;;;;;;;;;;;;;;;5134344;27;1949;-64
2023/08/30 14:58:21;;;;;;;;;;;;;;;;;;5152278;27;808;-65
2023/08/30 15:00:49;;;;;;;;;;;;;;;;;;5152739;27;839;-65
2023/08/30 15:03:15;;;;;;;;;;;;;;;;;;5151773;27;856;-64
2023/08/30 15:05:40;;;;;;;;;;;;;;;;;;5133990;27;1039;-65
2023/08/30 15:08:06;;;;;;;;;;;;;;;;;;5133694;27;930;-65
2023/08/30 15:10:31;;;;;;;;;;;;;;;;;;5152142;27;906;-65
2023/08/30 15:12:56;;;;;;;;;;;;;;;;;;5152444;27;1010;-65
2023/08/30 15:15:22;;;;;;;;;;;;;;;;;;5151200;27;879;-65
2023/08/30 15:17:47;;;;;;;;;;;;;;;;;;5152991;27;1898;-65
2023/08/30 15:20:12;;;;;;;;;;;;;;;;;;5151921;27;1264;-65
2023/08/30 15:22:37;;;;;;;;;;;;;;;;;;5152358;27;960;-65
2023/08/30 15:25:03;;;;;;;;;;;;;;;;;;5151409;27;1178;-64
2023/08/30 15:27:28;;;;;;;;;;;;;;;;;;5152009;27;939;-64
2023/08/30 15:29:55;;;;;;;;;;;;;;;;;;5152743;27;863;-65
2023/08/30 15:32:21;;;;;;;;;;;;;;;;;;5151825;27;828;-65
2023/08/30 15:34:46;;;;;;;;;;;;;;;;;;5152868;27;915;-65
2023/08/30 15:37:13;;;;;;;;;;;;;;;;;;5152148;27;1910;-64
2023/08/30 15:39:38;;;;;;;;;;;;;;;;;;5152103;27;864;-65
2023/08/30 15:42:03;;;;;;;;;;;;;;;;;;5133403;27;951;-64
2023/08/30 15:44:29;;;;;;;;;;;;;;;;;;5133381;27;729;-64
2023/08/30 15:46:54;;;;;;;;;;;;;;;;;;5152396;27;789;-64
2023/08/30 15:49:19;;;;;;;;;;;;;;;;;;5151280;27;903;-64
2023/08/30 15:51:44;;;;;;;;;;;;;;;;;;5152782;27;911;-64
2023/08/30 15:54:11;;;;;;;;;;;;;;;;;;5151921;27;994;-64
2023/08/30 15:56:37;;;;;;;;;;;;;;;;;;5133308;27;1945;-64
2023/08/30 15:59:02;;;;;;;;;;;;;;;;;;5152697;27;871;-64
2023/08/30 16:01:27;;;;;;;;;;;;;;;;;;5152663;27;1377;-64
2023/08/30 16:03:53;;;;;;;;;;;;;;;;;;5154143;27;832;-64
2023/08/30 16:06:18;;;;;;;;;;;;;;;;;;5152354;27;820;-64
2023/08/30 16:08:43;;;;;;;;;;;;;;;;;;5153495;27;918;-64
2023/08/30 16:11:08;;;;;;;;;;;;;;;;;;5152949;27;991;-64
2023/08/30 16:13:34;;;;;;;;;;;;;;;;;;5152181;27;858;-64
2023/08/30 16:16:00;;;;;;;;;;;;;;;;;;5152151;27;1890;-64
2023/08/30 16:18:25;;;;;;;;;;;;;;;;;;5133156;27;1167;-64
2023/08/30 16:20:50;;;;;;;;;;;;;;;;;;5152147;27;1201;-64
2023/08/30 16:23:16;;;;;;;;;;;;;;;;;;5151379;27;911;-64
2023/08/30 16:25:42;;;;;;;;;;;;;;;;;;5153489;27;840;-64
2023/08/30 16:28:07;;;;;;;;;;;;;;;;;;5155973;27;824;-64
2023/08/30 16:30:35;;;;;;;;;;;;;;;;;;5155511;27;888;-64
2023/08/30 16:33:00;;;;;;;;;;;;;;;;;;5155741;27;855;-64
2023/08/30 16:35:26;;;;;;;;;;;;;;;;;;5136823;27;821;-64
2023/08/30 16:37:51;;;;;;;;;;;;;;;;;;5155463;27;1917;-64
2023/08/30 16:40:16;;;;;;;;;;;;;;;;;;5153759;27;1122;-64
2023/08/30 16:42:42;;;;;;;;;;;;;;;;;;5155682;27;844;-64
2023/08/30 16:45:07;;;;;;;;;;;;;;;;;;5136637;27;1011;-64
2023/08/30 16:47:32;;;;;;;;;;;;;;;;;;5155434;27;1539;-64
2023/08/30 16:49:58;;;;;;;;;;;;;;;;;;5155340;27;968;-64
2023/08/30 16:52:23;;;;;;;;;;;;;;;;;;5154994;27;946;-64
2023/08/30 16:54:48;;;;;;;;;;;;;;;;;;5155788;27;891;-64
2023/08/30 16:57:13;;;;;;;;;;;;;;;;;;5154738;27;1901;-64
2023/08/30 16:59:39;;;;;;;;;;;;;;;;;;5136800;27;1129;-64
2023/08/30 17:02:04;;;;;;;;;;;;;;;;;;5155346;27;903;-64
2023/08/30 17:04:30;;;;;;;;;;;;;;;;;;5154797;27;783;-64